AirNav   Bose ProFlight Series 2 Headset
 
 1528 users online  

FL30 HCA New Port Richey Hospital Heliport
New Port Richey, Florida, USA

GOING TO NEW PORT RICHEY?


FAA INFORMATION EFFECTIVE 02 JANUARY 2020

Location

FAA Identifier: FL30
Lat/Long: 28-14-06.5700N 082-43-20.5000W
28-14.109500N 082-43.341667W
28.2351583,-82.7223611
(estimated)
Elevation: 25 ft. / 8 m (estimated)
Variation: 02W (1985)
From city: 1 mile S of NEW PORT RICHEY, FL
Time zone: UTC -5 (UTC -4 during Daylight Saving Time)
Zip code: 34652

Heliport Operations

Heliport use: Private use, MEDICAL
Activation date: 01/1990
Control tower: no
ARTCC: MIAMI CENTER
FSS: SAINT PETERSBURG FLIGHT SERVICE STATION
Attendance: CONTINUOUS
Wind indicator: yes
Segmented circle: no
Lights: SS-SR

Heliport Communications

WX AWOS-3P at CLW (16 nm S): 119.225 (727-449-2184)
WX ASOS at TPA (19 nm SE): PHONE 813-873-7228
WX ASOS at PIE (20 nm S): PHONE 727-531-3456

Nearby radio navigation aids

VOR radial/distance  VOR name  Freq  Var
PIEr359/19.7ST PETERSBURG VORTAC116.4005W

 
NDB name  Hdg/Dist  Freq  Var  ID
COSME316/13.836805WTP - .--.
CAPOK001/14.436005WPI .--. ..

Heliport Services

Runway Information

Helipad H1

Dimensions: 60 x 60 ft. / 18 x 18 m
Surface: concrete, in good condition
Runway edge lights: FLD
Latitude: 28-14.109500N
Longitude: 082-43.341667W
Elevation: 25.0 ft.
Traffic pattern: leftleft

Heliport Ownership and Management from official FAA records

Ownership: Privately-owned
Owner: HCA NEW PORT RICHEY HOSPITAL
5637 MARINE PKWY PO BOX 996
NEW PORT RICHEY, FL 34656
Phone 813-848-1733
Manager: ANDREW ORAVEC, JR ADM
5637 MARINE PKWY PO BOX 996
NEW PORT RICHEY, FL 34656
Phone 813-848-1733
ADDITIONAL CONTACT: DEVIN SOMMISE 9330 STATE RD 54 TRINITY, FL 34655 727-834-4838

Additional Remarks

A52-H1 30' SCHOOL 2000' E; 175' TWR 900' E; 50' BLDG 200' E 14' BLDG 175' SW; 190'TWR 3000' S.
FOR CD CTC TAMPA APCH AT 813-878-2528

Instrument Procedures

There are no published instrument procedures at FL30.

Some nearby airports with instrument procedures:

KCLW - Clearwater Air Park (16 nm S)
KTPA - Tampa International Airport (19 nm SE)
KPIE - St Pete-Clearwater International Airport (20 nm S)
KBKV - Brooksville-Tampa Bay Regional Airport (20 nm NE)
KVDF - Tampa Executive Airport (24 nm SE)
 
Loc | Ops | Rwys | IFR | FBO | Links
Com | Nav | Svcs | Stats | Notes


 
Area around FL30 (HCA New Port Richey Hospital Heliport)
 
Road maps at: MapQuest Bing Google
 
Aerial photo
No photo
 
Sectional chart

 
Airport distance calculator
Flying to HCA New Port Richey Hospital Heliport? Find the distance to fly.

From to FL30

Sunrise and sunset
Times for 21-Jan-2020
 Local
(UTC-5)
 Zulu
(UTC)
Morning civil twilight06:5911:59
Sunrise07:2412:24
Sunset18:0123:01
Evening civil twilight18:2623:26

Current date and time
Zulu (UTC)  21-Jan-2020 15:14:29
Local (UTC-5)  21-Jan-2020 10:14:29
 
METAR
KCLW 
16nm S 
211455Z AUTO 01010G14KT 10SM CLR 09/00 A3030 RMK AO2
KTPA 
19nm SE 
211453Z 36015KT 10SM FEW030 09/M02 A3029 RMK AO2 SLP258 T00941022 51018
KPIE 
19nm S 
211453Z 35010KT 10SM CLR 10/M01 A3030 RMK AO2 SLP259 T01001006 51018
KBKV 
20nm NE 
211453Z 36009KT 10SM CLR 08/M02 A3031 RMK AO2 SLP262 T00831022 51017
KVDF 
24nm SE 
211455Z AUTO 36009KT 10SM CLR 09/02 A3029 RMK AO2
KTPF 
24nm SE 
211455Z AUTO 02008KT 10SM CLR 10/02 A3029 RMK AO2
KMCF 
26nm SE 
211455Z 01011G17KT 10SM CLR 09/M01 A3028 RMK SLP257 52018
KSPG 
29nm S 
211453Z 35013KT 10SM CLR 09/02 A3026 RMK AO2 SLP248 T00940017 51016
KZPH 
30nm E 
211455Z AUTO 35013KT 10SM CLR 08/01 A3029 RMK A02 T00800008
TAF
KTPA 
19nm SE 
211136Z 2112/2218 36010KT P6SM SKC FM211500 34013G21KT P6SM SKC FM212300 35011KT P6SM SKC FM220400 01011G18KT P6SM SKC FM221500 36010KT P6SM SKC
KPIE 
19nm S 
211136Z 2112/2212 36011G18KT P6SM SKC FM211400 35013G21KT P6SM SKC FM220100 36015G25KT P6SM SKC
NOTAMs
Click for the latest NOTAMs
NOTAMs are issued by the DoD/FAA and will open in a separate window not controlled by AirNav.

 

 
 

Would you like to see your business listed on this page?

 If your business provides an interesting product or service to pilots, flight crews, aircraft, or users of the HCA New Port Richey Hospital Heliport, you should consider listing it here.  To start the listing process, click on the button below
 
Add a business
 

Other Pages about HCA New Port Richey Hospital Heliport

Update a link
 
Copyright © AirNav, LLC. All rights reserved. Privacy Policy  Contact